Jacksonville/Craig Field, Florida
Current Conditions -  °F | °C
As of 4:53 AM on Thursday 23 Oct 2014 (Local Time) from KCRG Reporting Station
Clear Clear  
Wind Chill: 60°   Ceiling: Unl
Heat Index: 60°   Visibility: 10mi
Dew Point: 49°   Wind: 7mph
Humidity: 67%   Direction: 360°N
Pressure: 30"   Gusts: NA
Location:  30.33°N, 81.52°W
Report Text: KCRG 230853Z AUTO 36006KT 10SM CLR 16/09 A3000 RMK AO2 SLP160 T01560094 56010
Loading
Personal Weather Stations






























Interactive Weather Map
Tropical Storm Tracking
New forecast layout! Learn more

10-Day Weather Forecast

Advertisements
Track Severe Weather on mobile